Time;durP1;ratioP1;P1;durP2;ratioP2;P2;SDS_P1;SDS_P2;PMS_P1;PMS_P2;Temp;Humidity;BMP_temperature;BMP_pressure;BME280_temperature;BME280_humidity;BME280_pressure;Samples;Min_cycle;Max_cycle;Signal;HPM_P1;HPM_P2
2022/06/19 00:00:22;;;;;;;16.07;8.00;;;25.30;68.20;;;;;;5024797;28;20470;-86
2022/06/19 00:02:49;;;;;;;13.90;6.63;;;25.30;68.00;;;;;;5027549;28;20454;-86
2022/06/19 00:05:18;;;;;;;15.57;8.10;;;25.20;67.30;;;;;;5022297;28;20457;-85
2022/06/19 00:07:45;;;;;;;10.13;6.50;;;25.10;67.20;;;;;;5017634;28;20473;-86
2022/06/19 00:10:12;;;;;;;13.97;7.63;;;25.00;66.60;;;;;;5022241;28;20789;-85
2022/06/19 00:12:40;;;;;;;11.00;6.97;;;24.90;67.60;;;;;;5020821;28;20522;-86
2022/06/19 00:15:08;;;;;;;12.43;6.93;;;24.90;68.50;;;;;;5018044;28;20446;-86
2022/06/19 00:17:34;;;;;;;19.13;8.80;;;24.80;69.00;;;;;;5017141;28;20495;-85
2022/06/19 00:20:01;;;;;;;15.97;7.87;;;24.80;69.70;;;;;;5019981;28;20445;-85
2022/06/19 00:22:29;;;;;;;10.50;7.67;;;24.70;70.00;;;;;;5028716;28;20461;-85
2022/06/19 00:24:56;;;;;;;12.93;7.80;;;24.80;70.00;;;;;;5026725;28;20450;-85
2022/06/19 00:27:24;;;;;;;13.77;8.10;;;24.80;70.40;;;;;;5038682;28;20502;-86
2022/06/19 00:29:51;;;;;;;17.27;8.67;;;24.70;70.50;;;;;;5038018;28;20435;-86
2022/06/19 00:32:18;;;;;;;15.40;8.60;;;24.60;71.10;;;;;;5033153;28;20435;-86
2022/06/19 00:34:45;;;;;;;12.20;7.77;;;24.60;71.30;;;;;;5026706;28;20938;-85
2022/06/19 00:37:12;;;;;;;14.00;7.83;;;24.50;71.30;;;;;;5017245;28;20480;-85
2022/06/19 00:39:40;;;;;;;12.73;8.00;;;24.50;71.10;;;;;;5018694;28;20479;-85
2022/06/19 00:42:09;;;;;;;14.10;7.17;;;24.50;70.20;;;;;;5030297;28;20454;-85
2022/06/19 00:44:36;;;;;;;9.03;6.57;;;24.40;70.60;;;;;;5031071;28;20448;-86
2022/06/19 00:47:08;;;;;;;12.70;7.87;;;24.50;70.30;;;;;;5030349;28;20454;-85
2022/06/19 00:49:38;;;;;;;14.73;7.77;;;24.50;70.70;;;;;;5027529;28;20446;-85
2022/06/19 00:52:08;;;;;;;13.50;7.83;;;24.40;70.90;;;;;;5014198;28;20450;-85
2022/06/19 00:54:39;;;;;;;13.03;7.47;;;24.30;71.00;;;;;;5018388;28;20460;-85
2022/06/19 00:57:08;;;;;;;9.73;6.87;;;24.20;71.20;;;;;;5030088;28;20438;-85
2022/06/19 00:59:35;;;;;;;13.50;7.87;;;24.00;72.00;;;;;;5021220;28;20845;-86
2022/06/19 01:02:03;;;;;;;12.60;7.20;;;24.00;71.90;;;;;;5015243;28;20446;-84
2022/06/19 01:04:39;;;;;;;11.53;6.67;;;24.10;71.80;;;;;;5015504;28;20434;-85
2022/06/19 01:07:08;;;;;;;12.73;7.07;;;24.00;71.90;;;;;;5017724;28;20480;-85
2022/06/19 01:09:35;;;;;;;13.60;6.83;;;24.00;72.00;;;;;;5014006;28;20445;-85
2022/06/19 01:12:04;;;;;;;19.53;7.00;;;23.90;72.00;;;;;;5015815;28;20949;-86
2022/06/19 01:14:33;;;;;;;16.67;7.50;;;23.90;71.90;;;;;;5014394;28;20504;-85
2022/06/19 01:17:12;;;;;;;16.77;7.17;;;23.80;72.10;;;;;;5015499;28;20457;-85
2022/06/19 01:19:43;;;;;;;16.10;6.97;;;23.80;72.20;;;;;;5017719;28;20512;-85
2022/06/19 01:22:20;;;;;;;11.93;6.10;;;23.80;72.40;;;;;;5022673;28;20421;-85
2022/06/19 01:25:01;;;;;;;15.63;6.83;;;23.80;72.60;;;;;;5036752;28;20433;-86
2022/06/19 01:30:15;;;;;;;12.47;7.17;;;23.60;73.00;;;;;;5008166;28;20473;-84
2022/06/19 01:32:45;;;;;;;13.10;7.10;;;23.60;73.70;;;;;;5001548;28;20452;-85
2022/06/19 01:35:13;;;;;;;13.33;6.80;;;23.50;73.80;;;;;;4998800;28;20964;-85
2022/06/19 01:37:41;;;;;;;12.47;6.80;;;23.50;73.80;;;;;;5000147;28;20466;-85
2022/06/19 01:40:14;;;;;;;14.37;7.00;;;23.50;73.80;;;;;;4998344;28;20433;-85
2022/06/19 01:42:41;;;;;;;15.87;7.20;;;23.50;74.00;;;;;;4999203;28;20533;-85
2022/06/19 01:45:09;;;;;;;12.90;7.50;;;23.40;74.20;;;;;;5000923;28;20808;-83
2022/06/19 01:47:36;;;;;;;12.40;7.30;;;23.40;74.80;;;;;;5008667;28;20491;-83
2022/06/19 01:50:08;;;;;;;13.53;7.30;;;23.30;74.90;;;;;;5002912;28;20453;-84
2022/06/19 01:52:35;;;;;;;13.10;8.43;;;23.20;74.90;;;;;;5007321;28;20491;-83
2022/06/19 01:55:06;;;;;;;14.20;6.93;;;23.10;74.90;;;;;;5004022;28;20442;-83
2022/06/19 01:57:36;;;;;;;17.63;6.60;;;23.00;75.60;;;;;;4999914;28;20469;-83
2022/06/19 02:00:04;;;;;;;18.43;8.07;;;23.00;75.90;;;;;;4997680;28;20483;-83
2022/06/19 02:02:33;;;;;;;24.90;8.37;;;23.00;75.60;;;;;;5007426;28;20476;-82
2022/06/19 02:05:00;;;;;;;14.80;7.40;;;23.00;75.40;;;;;;5008053;28;20851;-82
2022/06/19 02:07:29;;;;;;;15.07;7.00;;;23.00;75.50;;;;;;4997401;28;20892;-83
2022/06/19 02:09:56;;;;;;;11.70;7.03;;;22.90;75.60;;;;;;5006328;28;20472;-82
2022/06/19 02:12:24;;;;;;;12.63;6.30;;;22.90;75.90;;;;;;5009909;28;20453;-83
2022/06/19 02:14:52;;;;;;;14.47;6.50;;;22.90;76.00;;;;;;5013289;28;20445;-83
2022/06/19 02:20:43;;;;;;;12.70;6.83;;;22.70;76.50;;;;;;4989971;28;20438;-84
2022/06/19 02:23:10;;;;;;;13.83;6.37;;;22.70;77.10;;;;;;5001324;28;20444;-83
2022/06/19 02:25:40;;;;;;;19.90;8.17;;;22.70;77.20;;;;;;5001419;28;20456;-83
2022/06/19 02:28:08;;;;;;;14.73;6.50;;;22.70;77.40;;;;;;5001924;28;20506;-83
2022/06/19 02:30:37;;;;;;;10.00;5.93;;;22.60;78.00;;;;;;5003628;28;20455;-84
2022/06/19 02:33:07;;;;;;;16.07;7.83;;;22.50;78.40;;;;;;5001165;28;20960;-83
2022/06/19 02:35:34;;;;;;;10.47;6.13;;;22.50;79.00;;;;;;5000366;28;20452;-83
2022/06/19 02:38:07;;;;;;;13.10;8.40;;;22.50;79.90;;;;;;5000600;28;20467;-83
2022/06/19 02:40:41;;;;;;;11.20;6.93;;;22.40;80.80;;;;;;5000647;28;20508;-84
2022/06/19 02:43:11;;;;;;;10.37;6.90;;;22.50;81.30;;;;;;5000868;28;20451;-83
2022/06/19 02:45:40;;;;;;;13.80;6.90;;;22.50;81.10;;;;;;5007841;28;20510;-82
2022/06/19 02:48:07;;;;;;;15.70;8.03;;;22.60;81.40;;;;;;5010180;28;20476;-83
2022/06/19 02:50:35;;;;;;;12.93;7.80;;;22.60;81.40;;;;;;5009565;28;20464;-84
2022/06/19 02:53:03;;;;;;;11.13;7.57;;;22.70;81.30;;;;;;5002263;28;20876;-83
2022/06/19 02:55:29;;;;;;;12.30;7.30;;;22.70;80.50;;;;;;5002398;28;20465;-83
2022/06/19 02:57:56;;;;;;;19.07;7.83;;;22.60;80.50;;;;;;5006778;28;20572;-83
2022/06/19 03:00:27;;;;;;;10.13;6.57;;;22.50;80.70;;;;;;5011154;28;20513;-83
2022/06/19 03:02:59;;;;;;;12.90;7.50;;;22.50;82.30;;;;;;5009435;28;20895;-83
2022/06/19 03:05:29;;;;;;;10.93;7.40;;;22.60;81.40;;;;;;5002214;28;20451;-83
2022/06/19 03:07:55;;;;;;;8.00;6.57;;;22.50;81.20;;;;;;5000677;28;20464;-83
2022/06/19 03:10:23;;;;;;;13.33;6.77;;;22.30;81.40;;;;;;5000626;28;20463;-83
2022/06/19 03:12:50;;;;;;;12.53;7.33;;;22.20;82.00;;;;;;5003368;28;20451;-84
2022/06/19 03:15:18;;;;;;;12.50;6.50;;;22.20;82.50;;;;;;5005577;28;20458;-83
2022/06/19 03:17:45;;;;;;;13.23;6.70;;;22.10;83.70;;;;;;5001887;28;20472;-83
2022/06/19 03:20:15;;;;;;;14.20;6.97;;;22.10;82.70;;;;;;4999897;28;20485;-83
2022/06/19 03:22:42;;;;;;;13.53;6.67;;;22.20;82.80;;;;;;4999094;28;20461;-83
2022/06/19 03:25:09;;;;;;;15.23;6.83;;;22.10;82.60;;;;;;5001547;28;20458;-84
2022/06/19 03:27:36;;;;;;;11.50;6.47;;;22.20;82.80;;;;;;4999617;28;20561;-84
2022/06/19 03:30:03;;;;;;;14.67;6.97;;;22.20;82.80;;;;;;5007167;28;20442;-83
2022/06/19 03:32:29;;;;;;;10.23;6.60;;;22.20;82.70;;;;;;5009610;28;20448;-83
2022/06/19 03:34:57;;;;;;;13.03;7.30;;;22.20;82.60;;;;;;5004115;28;20443;-83
2022/06/19 03:37:25;;;;;;;8.80;6.20;;;22.20;82.50;;;;;;5002158;28;20450;-84
2022/06/19 03:39:52;;;;;;;14.83;6.70;;;22.20;83.00;;;;;;4999223;28;20511;-84
2022/06/19 03:42:19;;;;;;;9.40;6.97;;;22.20;83.10;;;;;;5003629;28;20455;-83
2022/06/19 03:44:45;;;;;;;9.13;6.40;;;22.30;82.80;;;;;;5000543;28;20453;-84
2022/06/19 03:47:18;;;;;;;16.40;7.10;;;22.30;82.60;;;;;;4998661;28;20478;-84
2022/06/19 03:49:44;;;;;;;9.90;6.53;;;22.30;82.20;;;;;;4999073;28;20454;-84
2022/06/19 03:52:11;;;;;;;14.13;6.70;;;22.30;83.10;;;;;;4998810;28;20452;-84
2022/06/19 03:54:39;;;;;;;16.97;6.77;;;22.40;83.00;;;;;;5000433;28;20448;-84
2022/06/19 03:57:06;;;;;;;11.90;6.60;;;22.40;82.80;;;;;;4999339;28;20859;-84
2022/06/19 03:59:33;;;;;;;14.07;7.40;;;22.50;82.40;;;;;;4998381;28;20479;-84
2022/06/19 04:02:00;;;;;;;9.47;6.20;;;22.50;82.00;;;;;;4998422;28;20528;-84
2022/06/19 04:04:26;;;;;;;9.17;5.97;;;22.50;81.60;;;;;;4999078;28;20451;-83
2022/06/19 04:06:53;;;;;;;9.17;6.03;;;22.50;81.40;;;;;;5005623;28;20507;-83
2022/06/19 04:09:20;;;;;;;10.57;7.30;;;22.60;81.40;;;;;;5006417;28;20487;-84
2022/06/19 04:11:48;;;;;;;9.17;6.00;;;22.60;81.40;;;;;;4998919;28;20455;-84
2022/06/19 04:14:16;;;;;;;18.00;7.63;;;22.60;80.70;;;;;;4998664;28;20460;-84
2022/06/19 04:16:43;;;;;;;7.67;5.87;;;22.70;81.00;;;;;;4999605;28;20477;-84
2022/06/19 04:19:11;;;;;;;11.50;6.30;;;22.70;79.70;;;;;;4997749;28;20579;-84
2022/06/19 04:21:42;;;;;;;14.17;6.40;;;22.80;77.90;;;;;;5000009;28;20451;-83
2022/06/19 04:24:12;;;;;;;11.20;6.37;;;22.90;77.00;;;;;;4999277;28;20461;-83
2022/06/19 04:26:39;;;;;;;12.70;5.90;;;23.00;77.80;;;;;;5000016;28;21010;-83
2022/06/19 04:29:09;;;;;;;9.43;4.80;;;23.00;77.80;;;;;;5007937;28;20465;-84
2022/06/19 04:31:36;;;;;;;9.10;5.70;;;23.10;76.80;;;;;;5005956;28;20565;-83
2022/06/19 04:34:03;;;;;;;12.37;5.93;;;23.10;75.70;;;;;;5006844;28;20542;-83
2022/06/19 04:36:31;;;;;;;10.50;5.93;;;23.20;76.40;;;;;;5006460;28;20454;-83
2022/06/19 04:38:59;;;;;;;15.23;5.80;;;23.30;76.30;;;;;;5006252;28;20484;-84
2022/06/19 04:41:28;;;;;;;13.67;5.77;;;23.30;75.60;;;;;;5006961;28;20661;-84
2022/06/19 04:43:56;;;;;;;14.50;5.87;;;23.30;75.30;;;;;;5004530;28;20453;-83
2022/06/19 04:46:24;;;;;;;14.17;6.80;;;23.40;74.80;;;;;;5002708;28;20857;-84
2022/06/19 04:48:51;;;;;;;10.37;5.10;;;23.40;75.20;;;;;;5002958;28;20469;-83
2022/06/19 04:51:18;;;;;;;12.73;5.80;;;23.50;75.50;;;;;;5002500;28;20456;-85
2022/06/19 04:53:46;;;;;;;13.67;6.47;;;23.50;74.10;;;;;;5001572;28;20445;-83
2022/06/19 04:56:14;;;;;;;9.73;5.13;;;23.60;73.80;;;;;;5002553;28;20968;-83
2022/06/19 04:58:41;;;;;;;9.20;4.93;;;23.60;73.60;;;;;;5005148;28;20469;-84
2022/06/19 05:01:10;;;;;;;14.00;6.90;;;23.70;73.20;;;;;;5002205;28;20449;-84
2022/06/19 05:03:38;;;;;;;11.13;5.70;;;23.70;73.60;;;;;;4998273;28;20477;-84
2022/06/19 05:06:05;;;;;;;18.17;6.80;;;23.80;72.80;;;;;;4997560;28;20462;-84
2022/06/19 05:08:32;;;;;;;15.07;7.73;;;23.80;72.60;;;;;;4997315;28;20528;-84
2022/06/19 05:10:59;;;;;;;9.53;5.40;;;24.00;72.30;;;;;;4999530;28;20442;-84
2022/06/19 05:13:26;;;;;;;16.60;6.07;;;24.00;72.30;;;;;;5000145;28;20504;-83
2022/06/19 05:16:03;;;;;;;8.00;5.00;;;24.10;71.90;;;;;;4998397;28;20442;-83
2022/06/19 05:18:30;;;;;;;12.83;5.30;;;24.20;71.30;;;;;;4997841;28;20484;-83
2022/06/19 05:21:01;;;;;;;11.47;5.03;;;24.30;71.20;;;;;;4998864;28;20494;-85
2022/06/19 05:23:27;;;;;;;13.50;6.00;;;24.50;70.70;;;;;;5000488;28;20463;-85
2022/06/19 05:25:59;;;;;;;10.40;5.60;;;24.90;70.30;;;;;;5004935;28;20470;-85
2022/06/19 05:28:26;;;;;;;15.23;5.40;;;25.40;68.60;;;;;;5008998;28;20998;-85
2022/06/19 05:30:52;;;;;;;10.83;5.40;;;25.90;65.80;;;;;;5010944;28;20443;-85
2022/06/19 05:33:19;;;;;;;8.53;5.30;;;26.20;64.80;;;;;;5001574;28;20474;-85
2022/06/19 05:35:46;;;;;;;12.90;5.90;;;26.60;63.50;;;;;;5005180;28;20552;-85
2022/06/19 05:38:14;;;;;;;15.83;5.60;;;26.90;62.30;;;;;;5005740;28;20471;-85
2022/06/19 05:40:41;;;;;;;11.40;5.43;;;27.30;61.40;;;;;;4999201;28;20480;-85
2022/06/19 05:43:08;;;;;;;12.57;5.83;;;27.60;60.80;;;;;;4996801;28;20944;-85
2022/06/19 05:45:35;;;;;;;15.07;6.77;;;27.80;59.40;;;;;;4999256;28;20454;-85
2022/06/19 05:48:02;;;;;;;14.90;6.13;;;28.10;59.40;;;;;;5000584;28;20510;-85
2022/06/19 05:50:29;;;;;;;13.67;5.80;;;28.50;58.40;;;;;;4998381;28;20522;-85
2022/06/19 05:52:56;;;;;;;12.10;4.67;;;28.60;58.10;;;;;;4999900;28;20447;-85
2022/06/19 05:55:24;;;;;;;12.30;5.40;;;28.90;57.50;;;;;;5000546;28;20517;-85
2022/06/19 05:57:51;;;;;;;9.00;4.97;;;29.10;57.50;;;;;;4999699;28;20470;-85
2022/06/19 06:00:18;;;;;;;7.30;4.77;;;29.50;56.90;;;;;;5011848;28;20537;-86
2022/06/19 06:02:45;;;;;;;9.33;6.03;;;29.80;56.30;;;;;;5008927;28;20457;-83
2022/06/19 06:05:12;;;;;;;15.43;6.00;;;30.00;55.80;;;;;;4998209;28;20951;-83
2022/06/19 06:07:39;;;;;;;11.70;5.17;;;30.10;55.20;;;;;;4997858;28;20526;-83
2022/06/19 06:10:06;;;;;;;13.83;5.30;;;30.20;55.20;;;;;;4997632;28;20446;-84
2022/06/19 06:12:34;;;;;;;12.07;6.60;;;30.30;54.90;;;;;;4999907;28;20442;-84
2022/06/19 06:15:01;;;;;;;10.50;5.27;;;30.50;54.50;;;;;;4999018;28;20513;-83
2022/06/19 06:17:28;;;;;;;9.00;5.33;;;30.60;53.90;;;;;;4999567;28;20490;-84
2022/06/19 06:19:54;;;;;;;13.10;5.50;;;30.60;53.90;;;;;;4998176;28;20482;-85
2022/06/19 06:22:21;;;;;;;10.40;5.40;;;30.80;53.90;;;;;;4997633;28;20450;-84
2022/06/19 06:24:48;;;;;;;12.53;5.70;;;30.80;53.70;;;;;;4997663;28;20447;-84
2022/06/19 06:27:14;;;;;;;12.87;5.70;;;31.10;53.80;;;;;;5002673;28;20451;-85
2022/06/19 06:29:42;;;;;;;12.50;4.90;;;31.40;53.40;;;;;;5004314;28;20447;-85
2022/06/19 06:32:09;;;;;;;9.97;5.17;;;31.50;52.70;;;;;;5004428;28;20443;-85
2022/06/19 06:34:36;;;;;;;18.77;5.17;;;31.60;52.20;;;;;;5017020;28;20449;-84
2022/06/19 06:37:02;;;;;;;12.03;5.20;;;31.70;52.40;;;;;;5002360;28;20450;-85
2022/06/19 06:39:29;;;;;;;12.93;5.57;;;31.80;52.30;;;;;;4998414;28;20475;-85
2022/06/19 06:41:56;;;;;;;12.37;5.83;;;31.80;52.60;;;;;;4997844;28;20450;-86
2022/06/19 06:44:22;;;;;;;12.40;5.23;;;32.00;52.30;;;;;;5008599;28;20871;-85
2022/06/19 06:46:50;;;;;;;11.73;5.67;;;32.00;52.20;;;;;;5007717;28;20560;-85
2022/06/19 06:49:17;;;;;;;10.00;7.77;;;32.50;52.10;;;;;;4998589;28;20534;-85
2022/06/19 06:51:44;;;;;;;20.70;6.07;;;32.60;51.50;;;;;;4997682;28;20483;-85
2022/06/19 06:54:10;;;;;;;14.77;5.77;;;32.80;51.60;;;;;;4997637;28;20821;-84
2022/06/19 06:56:37;;;;;;;8.70;4.87;;;33.50;51.00;;;;;;4996839;28;20458;-84
2022/06/19 06:59:04;;;;;;;17.57;5.83;;;33.80;50.40;;;;;;4997966;28;20493;-84
2022/06/19 07:01:32;;;;;;;11.27;6.10;;;34.50;49.50;;;;;;5001461;28;20483;-86
2022/06/19 07:04:01;;;;;;;15.27;6.53;;;35.20;48.20;;;;;;5004179;28;20447;-85
2022/06/19 07:06:29;;;;;;;12.77;5.37;;;35.50;47.40;;;;;;5001544;28;20522;-86
2022/06/19 07:08:56;;;;;;;9.73;5.00;;;35.20;47.40;;;;;;5000640;28;20990;-86
2022/06/19 07:11:25;;;;;;;11.57;5.20;;;34.90;47.90;;;;;;4999128;28;20450;-84
2022/06/19 07:13:53;;;;;;;14.80;6.20;;;34.80;48.20;;;;;;5002789;28;20450;-83
2022/06/19 07:16:19;;;;;;;12.20;5.73;;;34.00;49.00;;;;;;5001647;28;21014;-84
2022/06/19 07:18:46;;;;;;;9.73;5.73;;;33.00;50.70;;;;;;5004357;28;20995;-84
2022/06/19 07:21:15;;;;;;;11.10;6.03;;;32.50;51.80;;;;;;4999465;28;20483;-85
2022/06/19 07:23:42;;;;;;;10.90;5.70;;;31.90;52.80;;;;;;4997657;28;20470;-85
2022/06/19 07:26:10;;;;;;;10.73;6.30;;;31.30;53.90;;;;;;4997672;28;20481;-85
2022/06/19 07:28:38;;;;;;;15.60;6.67;;;30.80;55.30;;;;;;4999917;23;21047;-84
2022/06/19 07:31:07;;;;;;;11.30;6.93;;;30.40;56.30;;;;;;4975788;28;20444;-85
2022/06/19 07:33:35;;;;;;;15.00;5.60;;;30.40;57.10;;;;;;4977756;28;20424;-85
2022/06/19 07:36:03;;;;;;;18.03;6.60;;;30.60;57.10;;;;;;4980630;28;20440;-85
2022/06/19 07:38:32;;;;;;;12.57;6.07;;;30.80;56.80;;;;;;4981618;28;20480;-85
2022/06/19 07:40:59;;;;;;;6.57;5.03;;;31.30;56.20;;;;;;4983810;28;21075;-86
2022/06/19 07:43:27;;;;;;;11.30;6.20;;;32.30;55.10;;;;;;4983102;28;20802;-86
2022/06/19 07:45:54;;;;;;;11.77;6.17;;;33.20;53.20;;;;;;4977487;28;20862;-85
2022/06/19 07:51:05;;;;;;;12.63;5.93;;;32.90;53.00;;;;;;4981314;28;20555;-86
2022/06/19 07:53:33;;;;;;;10.20;5.83;;;33.40;52.70;;;;;;4977483;28;20440;-86
2022/06/19 07:56:00;;;;;;;13.77;5.30;;;34.30;51.10;;;;;;4986049;28;20452;-86
2022/06/19 07:58:27;;;;;;;10.67;6.77;;;35.00;49.80;;;;;;4984089;28;20471;-86
2022/06/19 08:00:54;;;;;;;11.83;7.47;;;35.70;49.20;;;;;;4977507;28;20486;-87
2022/06/19 08:03:21;;;;;;;9.87;6.23;;;36.50;48.00;;;;;;4976433;28;20440;-83
2022/06/19 08:05:54;;;;;;;11.37;5.80;;;37.20;47.10;;;;;;4974852;28;20455;-84
2022/06/19 08:08:25;;;;;;;10.03;6.20;;;36.60;46.60;;;;;;4975877;28;20470;-84
2022/06/19 08:10:55;;;;;;;14.27;5.90;;;36.30;47.00;;;;;;4975063;28;20476;-85
2022/06/19 08:13:23;;;;;;;16.50;6.67;;;36.20;48.10;;;;;;4962316;28;20448;-84
2022/06/19 08:15:51;;;;;;;16.13;6.17;;;36.40;47.00;;;;;;4973622;28;20972;-84
2022/06/19 08:18:19;;;;;;;11.63;6.50;;;36.80;47.20;;;;;;4979324;28;20475;-83
2022/06/19 08:20:46;;;;;;;9.23;5.77;;;37.20;47.10;;;;;;4970885;28;20481;-84
2022/06/19 08:23:14;;;;;;;14.40;6.40;;;37.90;46.50;;;;;;4974514;28;20451;-84
2022/06/19 08:25:41;;;;;;;11.57;6.03;;;38.50;46.00;;;;;;4983633;28;20494;-83
2022/06/19 08:28:09;;;;;;;8.23;5.90;;;39.20;44.70;;;;;;4976194;28;20902;-83
2022/06/19 08:30:39;;;;;;;9.23;6.90;;;38.60;44.70;;;;;;4974815;28;20444;-82
2022/06/19 08:33:07;;;;;;;12.17;6.40;;;38.20;44.90;;;;;;4973251;28;20444;-83
2022/06/19 08:35:39;;;;;;;12.30;7.23;;;38.50;45.30;;;;;;4973389;28;20498;-84
2022/06/19 08:38:09;;;;;;;12.93;6.87;;;39.60;44.20;;;;;;4974276;28;20464;-83
2022/06/19 08:40:52;;;;;;;8.97;6.93;;;40.30;43.30;;;;;;4972381;28;20488;-84
2022/06/19 08:43:34;;;;;;;13.10;6.37;;;40.60;43.20;;;;;;4974821;28;20440;-84
2022/06/19 08:46:12;;;;;;;9.80;6.93;;;42.00;41.90;;;;;;4979535;28;20944;-84
2022/06/19 08:48:59;;;;;;;14.83;7.43;;;42.50;40.70;;;;;;4974658;28;20466;-83
2022/06/19 08:51:33;;;;;;;9.53;6.70;;;42.90;40.30;;;;;;4974010;28;20936;-83
2022/06/19 08:54:19;;;;;;;9.90;7.70;;;42.90;39.50;;;;;;4976171;28;20451;-83
2022/06/19 08:56:55;;;;;;;11.50;7.70;;;43.20;39.30;;;;;;4973305;28;20467;-84
2022/06/19 08:59:33;;;;;;;10.77;8.20;;;43.30;38.70;;;;;;4973494;28;20459;-83
2022/06/19 09:02:05;;;;;;;11.50;7.70;;;44.10;38.40;;;;;;4954744;28;20472;-83
2022/06/19 09:07:40;;;;;;;10.07;9.00;;;44.30;37.10;;;;;;4992094;28;20435;-83
2022/06/19 09:10:20;;;;;;;9.93;8.93;;;43.90;35.00;;;;;;4980082;28;20509;-82
2022/06/19 09:13:08;;;;;;;12.73;9.07;;;43.50;35.10;;;;;;5000889;28;20435;-83
2022/06/19 09:15:41;;;;;;;9.27;7.43;;;43.70;35.90;;;;;;4977571;28;20479;-85
2022/06/19 09:18:20;;;;;;;16.50;8.67;;;43.40;36.30;;;;;;4972430;28;20468;-82
2022/06/19 09:20:54;;;;;;;11.23;7.97;;;44.70;36.80;;;;;;4968526;28;20608;-82
2022/06/19 09:23:38;;;;;;;14.90;8.60;;;45.40;34.70;;;;;;4955402;28;20453;-84
2022/06/19 09:26:09;;;;;;;13.13;8.37;;;45.00;30.00;;;;;;4954960;28;20460;-84
2022/06/19 09:28:42;;;;;;;12.60;8.20;;;42.50;29.70;;;;;;4954558;28;20582;-84
2022/06/19 09:31:15;;;;;;;13.50;9.13;;;42.80;30.40;;;;;;4957691;28;20469;-82
2022/06/19 09:33:46;;;;;;;12.03;8.70;;;43.80;29.30;;;;;;4959096;28;20448;-88
2022/06/19 09:36:22;;;;;;;10.20;7.23;;;44.70;29.00;;;;;;4955960;28;20440;-81
2022/06/19 09:38:56;;;;;;;14.23;8.47;;;44.30;27.90;;;;;;4970856;28;20468;-82
2022/06/19 09:41:28;;;;;;;13.47;7.43;;;44.90;28.40;;;;;;4973391;28;20496;-82
2022/06/19 09:44:06;;;;;;;11.10;7.07;;;45.60;27.90;;;;;;4977430;28;20433;-81
2022/06/19 09:46:39;;;;;;;11.73;7.70;;;46.00;27.60;;;;;;4969243;28;20444;-81
2022/06/19 09:49:10;;;;;;;10.63;8.13;;;45.70;27.20;;;;;;4975230;28;20460;-83
2022/06/19 09:51:45;;;;;;;8.33;7.43;;;45.80;27.10;;;;;;4966249;28;20460;-83
2022/06/19 09:54:16;;;;;;;10.93;7.70;;;46.10;27.40;;;;;;4954775;28;20429;-83
2022/06/19 09:56:50;;;;;;;10.60;7.30;;;46.40;27.00;;;;;;4954795;28;20449;-82
2022/06/19 09:59:21;;;;;;;8.97;7.50;;;45.80;27.10;;;;;;4954283;28;20555;-82
2022/06/19 10:01:56;;;;;;;10.17;7.97;;;46.60;26.90;;;;;;4953487;28;21004;-83
2022/06/19 10:04:33;;;;;;;10.97;7.37;;;46.20;26.50;;;;;;4954588;28;21169;-85
2022/06/19 10:07:04;;;;;;;10.10;7.30;;;43.70;26.30;;;;;;4954292;28;20459;-84
2022/06/19 10:09:38;;;;;;;14.23;7.50;;;42.50;27.30;;;;;;4954756;28;20476;-82
2022/06/19 10:12:07;;;;;;;11.63;7.13;;;42.50;27.60;;;;;;4954978;28;20449;-83
2022/06/19 10:14:38;;;;;;;13.60;8.00;;;41.10;28.00;;;;;;4961044;28;20432;-82
2022/06/19 10:17:18;;;;;;;13.77;8.97;;;40.00;28.20;;;;;;4959705;28;20832;-82
2022/06/19 10:19:49;;;;;;;9.93;7.73;;;40.00;28.40;;;;;;4962364;28;20472;-81
2022/06/19 10:22:39;;;;;;;8.47;6.90;;;39.80;28.80;;;;;;4970189;28;20488;-81
2022/06/19 10:25:34;;;;;;;13.47;7.93;;;40.50;28.80;;;;;;4957391;28;20460;-82
2022/06/19 10:28:23;;;;;;;14.70;8.60;;;41.30;28.80;;;;;;4946817;28;20492;-86
2022/06/19 10:30:57;;;;;;;13.63;8.60;;;41.20;28.70;;;;;;4961782;28;20471;-82
2022/06/19 10:33:37;;;;;;;11.63;6.90;;;41.40;29.10;;;;;;4983171;28;20443;-82
2022/06/19 10:36:13;;;;;;;9.20;7.20;;;41.30;28.80;;;;;;4993968;28;20454;-82
2022/06/19 10:38:57;;;;;;;10.83;6.90;;;42.00;29.00;;;;;;4995632;28;20481;-82
2022/06/19 10:44:37;;;;;;;8.40;7.13;;;42.60;27.20;;;;;;4967835;28;20429;-81
2022/06/19 10:47:11;;;;;;;9.23;7.30;;;43.80;27.50;;;;;;4992850;28;20447;-82
2022/06/19 10:49:50;;;;;;;9.30;6.60;;;44.60;26.90;;;;;;4996384;28;20451;-81
2022/06/19 10:52:24;;;;;;;8.90;7.07;;;45.50;26.40;;;;;;4993915;28;20439;-81
2022/06/19 10:55:14;;;;;;;14.60;8.17;;;46.40;25.70;;;;;;4995507;28;20449;-82
2022/06/19 10:57:54;;;;;;;9.20;6.57;;;47.40;25.50;;;;;;5006516;28;20435;-83
2022/06/19 11:00:20;;;;;;;11.47;7.60;;;47.40;25.30;;;;;;4991248;28;20442;-82
2022/06/19 11:05:48;;;;;;;8.40;7.10;;;44.20;25.60;;;;;;5001901;28;20489;-82
2022/06/19 11:08:16;;;;;;;8.87;7.13;;;45.20;26.50;;;;;;4990118;28;20964;-82
2022/06/19 11:10:46;;;;;;;10.67;7.77;;;46.10;25.70;;;;;;4989806;28;20451;-82
2022/06/19 11:13:12;;;;;;;12.13;7.83;;;47.10;25.50;;;;;;4989089;28;20439;-81
2022/06/19 11:15:42;;;;;;;8.80;8.00;;;48.20;25.20;;;;;;4990319;28;20458;-83
2022/06/19 11:18:13;;;;;;;10.47;6.73;;;48.20;24.50;;;;;;4988142;28;20482;-83
2022/06/19 11:20:53;;;;;;;10.93;7.87;;;44.80;25.30;;;;;;4990229;28;21208;-83
2022/06/19 11:23:26;;;;;;;10.23;7.80;;;43.20;26.00;;;;;;4992551;28;20944;-80
2022/06/19 11:26:01;;;;;;;10.87;6.70;;;43.10;26.50;;;;;;4989398;28;21173;-81
2022/06/19 11:28:42;;;;;;;15.90;7.83;;;42.00;27.10;;;;;;4991039;28;20529;-82
2022/06/19 11:31:17;;;;;;;12.60;7.43;;;42.50;27.40;;;;;;4988540;28;20439;-84
2022/06/19 11:33:44;;;;;;;9.50;7.17;;;44.00;27.10;;;;;;4988571;28;20458;-82
2022/06/19 11:36:27;;;;;;;12.93;7.60;;;44.60;26.40;;;;;;4990133;28;20454;-82
2022/06/19 11:38:55;;;;;;;11.43;7.53;;;45.90;26.30;;;;;;4987933;28;20463;-83
2022/06/19 11:41:30;;;;;;;11.60;6.90;;;46.40;25.50;;;;;;4986912;28;20545;-82
2022/06/19 11:44:17;;;;;;;13.80;7.30;;;46.90;24.80;;;;;;4991748;28;20447;-83
2022/06/19 11:46:48;;;;;;;16.10;7.03;;;47.00;24.70;;;;;;4995322;28;20456;-81
2022/06/19 11:49:31;;;;;;;12.87;7.40;;;43.90;24.90;;;;;;4993695;28;20464;-81
2022/06/19 11:52:02;;;;;;;13.30;6.90;;;45.10;25.60;;;;;;4990050;28;20435;-80
2022/06/19 11:54:32;;;;;;;11.70;6.50;;;46.50;25.20;;;;;;4990358;28;20452;-81
2022/06/19 11:56:59;;;;;;;9.40;5.80;;;46.70;24.70;;;;;;4990438;28;20442;-82
2022/06/19 11:59:35;;;;;;;12.80;6.80;;;47.60;24.40;;;;;;4989146;28;20463;-84
2022/06/19 12:02:04;;;;;;;11.93;7.77;;;46.70;24.00;;;;;;4979944;28;20526;-84
2022/06/19 12:04:38;;;;;;;9.53;6.67;;;45.70;24.70;;;;;;4980811;28;20522;-83
2022/06/19 12:07:15;;;;;;;9.47;7.87;;;44.00;25.20;;;;;;4986730;28;20439;-84
2022/06/19 12:09:45;;;;;;;11.27;7.17;;;43.20;26.00;;;;;;4981054;28;20490;-83
2022/06/19 12:12:19;;;;;;;7.60;6.70;;;44.60;26.50;;;;;;4978668;28;20447;-85
2022/06/19 12:14:56;;;;;;;10.53;6.90;;;44.90;25.70;;;;;;4990484;28;20801;-85
2022/06/19 12:17:26;;;;;;;12.37;7.40;;;45.10;25.80;;;;;;4982919;28;20444;-86
2022/06/19 12:19:55;;;;;;;10.67;7.80;;;46.20;25.30;;;;;;4985233;28;21096;-85
2022/06/19 12:22:32;;;;;;;11.47;7.47;;;47.00;24.70;;;;;;4985131;28;20476;-85
2022/06/19 12:25:04;;;;;;;11.20;8.30;;;46.30;24.60;;;;;;4981133;28;20442;-85
2022/06/19 12:27:45;;;;;;;14.80;8.40;;;46.20;24.60;;;;;;4988790;28;20455;-84
2022/06/19 12:30:19;;;;;;;13.27;6.50;;;45.80;24.80;;;;;;5000613;28;20443;-80
2022/06/19 12:32:48;;;;;;;10.30;7.27;;;43.90;25.10;;;;;;4998864;28;20852;-81
2022/06/19 12:35:33;;;;;;;8.93;7.63;;;43.20;26.60;;;;;;4982834;28;20491;-83
2022/06/19 12:38:03;;;;;;;10.50;8.20;;;44.20;26.50;;;;;;4969662;28;20467;-81
2022/06/19 12:40:48;;;;;;;8.20;7.40;;;45.50;25.60;;;;;;4972627;28;20439;-81
2022/06/19 12:43:24;;;;;;;15.97;8.03;;;47.00;25.00;;;;;;4977615;28;20472;-82
2022/06/19 12:45:56;;;;;;;7.63;6.93;;;47.70;24.40;;;;;;4969944;28;20444;-83
2022/06/19 12:48:45;;;;;;;11.10;6.93;;;46.50;24.00;;;;;;4972004;28;20461;-83
2022/06/19 12:51:23;;;;;;;9.97;6.63;;;44.80;25.40;;;;;;4970697;28;20453;-83
2022/06/19 12:54:32;;;;;;;18.03;8.17;;;44.30;25.30;;;;;;4972418;28;20459;-83
2022/06/19 12:57:14;;;;;;;8.77;6.33;;;44.20;25.60;;;;;;4945185;28;20451;-85
2022/06/19 13:00:01;;;;;;;8.97;7.00;;;44.00;25.80;;;;;;4992512;28;20455;-85
2022/06/19 13:02:44;;;;;;;10.60;7.13;;;44.60;25.70;;;;;;4989831;28;20495;-84
2022/06/19 13:05:21;;;;;;;12.97;6.73;;;45.40;25.40;;;;;;4970001;28;20451;-84
2022/06/19 13:07:59;;;;;;;16.00;8.33;;;45.50;24.40;;;;;;4965969;28;20439;-84
2022/06/19 13:10:45;;;;;;;9.20;6.80;;;43.10;25.20;;;;;;4978690;28;20440;-83
2022/06/19 13:13:33;;;;;;;10.33;7.60;;;43.10;26.50;;;;;;4983322;28;20444;-84